Disautel, Washington
Current Conditions -  °F | °C
As of 9:53 PM on Wednesday 28 Jan 2015 (Local Time) from KOMK Reporting Station
Overcast Overcast  
Wind Chill: 30°   Ceiling: 700
Heat Index: 34°   Visibility: 10mi
Dew Point: 31°   Wind: 5mph
Humidity: 89%   Direction: 220°SW
Pressure: 30.49"   Gusts: NA
Location:  48.4274°N, 119.524°W
Report Text: KOMK 290553Z AUTO 22004KT 10SM OVC007 01/M01 A3049 RMK AO2 SLP341 T00111006 10022 20011 53007
Loading
Personal Weather Stations






























Interactive Weather Map New forecast layout! Learn more

10-Day Weather Forecast

Advertisements
Track Severe Weather on mobile